GEC8223 MMMY-EDDF
Flight info
| Callsign | GEC8223 |
|---|---|
| Flight time | N/A |
| Altitude | 39000 |
| Route | OVEMA1A OVEMA J29 PSX J22 LCH Q24 LSU/N0475F410 Q24 IRUBE DCT CATLN Q64 SAWED Q108 BYSEL DCT RADDS DCT SIE DCT RBV Q22 FOXWD DCT EBONY N567B TUDEP/M082F400 DCT 52N050W 54N040W 55N030W 55N020W DCT DOGAL DCT BEXET/N0481F410 DCT LIFFY UL975 WAL M16 DOLAS DCT NAVPI DCT NOLRU DCT DIXAT DIXAT1B |
| Aircraft | B77L/H-SDE1E2E3FGHIJ2J3J4J5M1RWXY/LB1D1 |
Departure
| Time | N/A |
|---|---|
| Airport | Monterrey International Airport (MMMY) |
Arrival
| Time | 2026-05-08 04:52 |
|---|---|
| Airport | Frankfurt Main Airport (EDDF) |
| Time | Latitude | Longitude | Altitude | Speed | Heading |
|---|---|---|---|---|---|
| 2026-05-08 04:07 | 51.93670 | 4.86513 | 41090 ft | 416 kts | 119° |
| 2026-05-08 04:07 | 51.92353 | 4.90701 | 41088 ft | 416 kts | 119° |
| 2026-05-08 04:08 | 51.89725 | 4.99034 | 41094 ft | 416 kts | 119° |
| 2026-05-08 04:08 | 51.87074 | 5.07408 | 41122 ft | 427 kts | 119° |
| 2026-05-08 04:09 | 51.85692 | 5.11757 | 41110 ft | 443 kts | 119° |
| 2026-05-08 04:09 | 51.84260 | 5.16254 | 41117 ft | 457 kts | 119° |
| 2026-05-08 04:09 | 51.82780 | 5.20896 | 41112 ft | 471 kts | 119° |
| 2026-05-08 04:09 | 51.81260 | 5.25658 | 41094 ft | 481 kts | 119° |
| 2026-05-08 04:10 | 51.78189 | 5.35272 | 41089 ft | 481 kts | 119° |
| 2026-05-08 04:10 | 51.75116 | 5.44851 | 41090 ft | 480 kts | 119° |
| 2026-05-08 04:11 | 51.72035 | 5.54410 | 41100 ft | 480 kts | 119° |
| 2026-05-08 04:11 | 51.68948 | 5.63945 | 41094 ft | 480 kts | 119° |
| 2026-05-08 04:12 | 51.65856 | 5.73458 | 41112 ft | 479 kts | 120° |
| 2026-05-08 04:12 | 51.62755 | 5.82964 | 41092 ft | 480 kts | 120° |
| 2026-05-08 04:13 | 51.59648 | 5.92455 | 41094 ft | 480 kts | 120° |
| 2026-05-08 04:13 | 51.56531 | 6.01937 | 41088 ft | 480 kts | 120° |
| 2026-05-08 04:14 | 51.53407 | 6.11412 | 41107 ft | 480 kts | 120° |
| 2026-05-08 04:14 | 51.50290 | 6.20892 | 41109 ft | 480 kts | 118° |
| 2026-05-08 04:15 | 51.47724 | 6.30730 | 41110 ft | 481 kts | 113° |
| 2026-05-08 04:15 | 51.45318 | 6.40761 | 40724 ft | 487 kts | 112° |
| 2026-05-08 04:16 | 51.44086 | 6.45851 | 40025 ft | 490 kts | 113° |
| 2026-05-08 04:16 | 51.42848 | 6.50920 | 39331 ft | 488 kts | 113° |
| 2026-05-08 04:16 | 51.41604 | 6.55970 | 38560 ft | 487 kts | 113° |
| 2026-05-08 04:16 | 51.40354 | 6.61015 | 37635 ft | 486 kts | 113° |
| 2026-05-08 04:17 | 51.39107 | 6.66028 | 36817 ft | 483 kts | 113° |
| 2026-05-08 04:17 | 51.37864 | 6.71015 | 36114 ft | 479 kts | 113° |
| 2026-05-08 04:17 | 51.36637 | 6.75929 | 35564 ft | 472 kts | 113° |
| 2026-05-08 04:17 | 51.35425 | 6.80774 | 34979 ft | 466 kts | 113° |
| 2026-05-08 04:18 | 51.34228 | 6.85550 | 34409 ft | 461 kts | 113° |
| 2026-05-08 04:18 | 51.33038 | 6.90290 | 33766 ft | 457 kts | 113° |
| 2026-05-08 04:18 | 51.31857 | 6.94980 | 33150 ft | 452 kts | 113° |
| 2026-05-08 04:18 | 51.30691 | 6.99607 | 32558 ft | 446 kts | 113° |
| 2026-05-08 04:19 | 51.29540 | 7.04166 | 32007 ft | 440 kts | 113° |
| 2026-05-08 04:19 | 51.28398 | 7.08674 | 31432 ft | 435 kts | 113° |
| 2026-05-08 04:19 | 51.27053 | 7.12906 | 30867 ft | 423 kts | 128° |
| 2026-05-08 04:19 | 51.25786 | 7.15246 | 30534 ft | 418 kts | 138° |
| 2026-05-08 04:20 | 51.23460 | 7.17916 | 29966 ft | 409 kts | 154° |
| 2026-05-08 04:20 | 51.20919 | 7.19886 | 29363 ft | 404 kts | 157° |
| 2026-05-08 04:20 | 51.18360 | 7.21804 | 28793 ft | 399 kts | 156° |
| 2026-05-08 04:20 | 51.15864 | 7.23720 | 28249 ft | 395 kts | 156° |
| 2026-05-08 04:21 | 51.13446 | 7.25618 | 27726 ft | 392 kts | 155° |
| 2026-05-08 04:21 | 51.11017 | 7.27551 | 27191 ft | 389 kts | 155° |
| 2026-05-08 04:21 | 51.08619 | 7.29526 | 26651 ft | 386 kts | 154° |
| 2026-05-08 04:21 | 51.06247 | 7.31495 | 26142 ft | 384 kts | 154° |
| 2026-05-08 04:22 | 51.03893 | 7.33443 | 25635 ft | 381 kts | 154° |
| 2026-05-08 04:22 | 51.01540 | 7.35384 | 25136 ft | 379 kts | 154° |
| 2026-05-08 04:22 | 50.99200 | 7.37312 | 24632 ft | 377 kts | 154° |
| 2026-05-08 04:22 | 50.96873 | 7.39225 | 24134 ft | 376 kts | 154° |
| 2026-05-08 04:23 | 50.94561 | 7.41125 | 23639 ft | 374 kts | 154° |
| 2026-05-08 04:23 | 50.92250 | 7.43022 | 23057 ft | 372 kts | 154° |
| 2026-05-08 04:23 | 50.89966 | 7.44894 | 22551 ft | 369 kts | 154° |
| 2026-05-08 04:23 | 50.87686 | 7.46760 | 21986 ft | 367 kts | 154° |
| 2026-05-08 04:24 | 50.85416 | 7.48618 | 21369 ft | 367 kts | 154° |
| 2026-05-08 04:24 | 50.83151 | 7.50470 | 20799 ft | 366 kts | 154° |
| 2026-05-08 04:24 | 50.80902 | 7.52304 | 20303 ft | 362 kts | 154° |
| 2026-05-08 04:24 | 50.78678 | 7.54115 | 19852 ft | 359 kts | 154° |
| 2026-05-08 04:25 | 50.76468 | 7.55914 | 19420 ft | 356 kts | 154° |
| 2026-05-08 04:25 | 50.74273 | 7.57699 | 18996 ft | 353 kts | 154° |
| 2026-05-08 04:25 | 50.72093 | 7.59470 | 18571 ft | 352 kts | 154° |
| 2026-05-08 04:25 | 50.69922 | 7.61231 | 18107 ft | 350 kts | 154° |
| 2026-05-08 04:26 | 50.67765 | 7.62980 | 17640 ft | 348 kts | 154° |
| 2026-05-08 04:26 | 50.65621 | 7.64717 | 17208 ft | 345 kts | 154° |
| 2026-05-08 04:26 | 50.63500 | 7.66434 | 16803 ft | 342 kts | 154° |
| 2026-05-08 04:26 | 50.61383 | 7.68144 | 16381 ft | 340 kts | 154° |
| 2026-05-08 04:27 | 50.59285 | 7.69838 | 15969 ft | 338 kts | 154° |
| 2026-05-08 04:27 | 50.57202 | 7.71516 | 15599 ft | 335 kts | 154° |
| 2026-05-08 04:27 | 50.55132 | 7.73183 | 15221 ft | 333 kts | 154° |
| 2026-05-08 04:27 | 50.53077 | 7.74836 | 14849 ft | 332 kts | 154° |
| 2026-05-08 04:28 | 50.51025 | 7.76485 | 14470 ft | 330 kts | 154° |
| 2026-05-08 04:28 | 50.48981 | 7.78127 | 14112 ft | 329 kts | 154° |
| 2026-05-08 04:28 | 50.46945 | 7.79761 | 13732 ft | 329 kts | 154° |
| 2026-05-08 04:28 | 50.44910 | 7.81392 | 13317 ft | 328 kts | 154° |
| 2026-05-08 04:29 | 50.42915 | 7.83087 | 12957 ft | 325 kts | 148° |
| 2026-05-08 04:29 | 50.41101 | 7.85176 | 12659 ft | 322 kts | 142° |
| 2026-05-08 04:29 | 50.39383 | 7.87398 | 12361 ft | 320 kts | 141° |
| 2026-05-08 04:29 | 50.37676 | 7.89623 | 12052 ft | 319 kts | 141° |
| 2026-05-08 04:30 | 50.35951 | 7.91835 | 11772 ft | 322 kts | 142° |
| 2026-05-08 04:30 | 50.34203 | 7.94042 | 11477 ft | 323 kts | 142° |
| 2026-05-08 04:30 | 50.32446 | 7.96232 | 11156 ft | 322 kts | 142° |
| 2026-05-08 04:30 | 50.30693 | 7.98403 | 10851 ft | 321 kts | 142° |
| 2026-05-08 04:31 | 50.28948 | 8.00557 | 10568 ft | 316 kts | 142° |
| 2026-05-08 04:31 | 50.27274 | 8.02688 | 10238 ft | 302 kts | 136° |
| 2026-05-08 04:31 | 50.26122 | 8.05342 | 10058 ft | 291 kts | 112° |
| 2026-05-08 04:31 | 50.25556 | 8.08327 | 9947 ft | 285 kts | 104° |
| 2026-05-08 04:32 | 50.25091 | 8.11300 | 9835 ft | 285 kts | 103° |
| 2026-05-08 04:32 | 50.24626 | 8.14309 | 9737 ft | 285 kts | 103° |
| 2026-05-08 04:32 | 50.24157 | 8.17311 | 9610 ft | 285 kts | 103° |
| 2026-05-08 04:32 | 50.23677 | 8.20355 | 9504 ft | 284 kts | 104° |
| 2026-05-08 04:33 | 50.23205 | 8.23302 | 9399 ft | 284 kts | 104° |
| 2026-05-08 04:33 | 50.22725 | 8.26290 | 9297 ft | 284 kts | 104° |
| 2026-05-08 04:33 | 50.22243 | 8.29270 | 9180 ft | 283 kts | 104° |
| 2026-05-08 04:33 | 50.21758 | 8.32253 | 9079 ft | 283 kts | 104° |
| 2026-05-08 04:34 | 50.21275 | 8.35219 | 8968 ft | 281 kts | 104° |
| 2026-05-08 04:34 | 50.20492 | 8.37950 | 8838 ft | 277 kts | 129° |
| 2026-05-08 04:34 | 50.19018 | 8.39832 | 8756 ft | 276 kts | 154° |
| 2026-05-08 04:34 | 50.17236 | 8.40926 | 8673 ft | 276 kts | 161° |
| 2026-05-08 04:35 | 50.15419 | 8.41940 | 8566 ft | 278 kts | 161° |
| 2026-05-08 04:35 | 50.13568 | 8.42530 | 8435 ft | 272 kts | 184° |
| 2026-05-08 04:35 | 50.11774 | 8.41751 | 8353 ft | 269 kts | 212° |
| 2026-05-08 04:35 | 50.10384 | 8.39855 | 8271 ft | 267 kts | 234° |
| 2026-05-08 04:36 | 50.09539 | 8.37324 | 8163 ft | 263 kts | 250° |
| 2026-05-08 04:36 | 50.08894 | 8.34641 | 8061 ft | 265 kts | 251° |
| 2026-05-08 04:36 | 50.08257 | 8.31933 | 7958 ft | 267 kts | 251° |
| 2026-05-08 04:36 | 50.07614 | 8.29212 | 7860 ft | 268 kts | 251° |
| 2026-05-08 04:37 | 50.06970 | 8.26505 | 7751 ft | 267 kts | 251° |
| 2026-05-08 04:37 | 50.06322 | 8.23805 | 7654 ft | 266 kts | 251° |
| 2026-05-08 04:37 | 50.05674 | 8.21121 | 7560 ft | 265 kts | 251° |
| 2026-05-08 04:37 | 50.05024 | 8.18444 | 7452 ft | 263 kts | 251° |
| 2026-05-08 04:38 | 50.04377 | 8.15787 | 7355 ft | 262 kts | 251° |
| 2026-05-08 04:38 | 50.03731 | 8.13146 | 7255 ft | 261 kts | 251° |
| 2026-05-08 04:38 | 50.03088 | 8.10519 | 7167 ft | 260 kts | 251° |
| 2026-05-08 04:38 | 50.02449 | 8.07897 | 7060 ft | 259 kts | 251° |
| 2026-05-08 04:39 | 50.01808 | 8.05268 | 6968 ft | 259 kts | 251° |
| 2026-05-08 04:39 | 50.01168 | 8.02648 | 6882 ft | 259 kts | 251° |
| 2026-05-08 04:39 | 50.00528 | 8.00032 | 6777 ft | 259 kts | 251° |
| 2026-05-08 04:39 | 49.99887 | 7.97409 | 6686 ft | 260 kts | 251° |
| 2026-05-08 04:40 | 49.99245 | 7.94793 | 6638 ft | 259 kts | 251° |
| 2026-05-08 04:40 | 49.98602 | 7.92176 | 6560 ft | 259 kts | 251° |
| 2026-05-08 04:40 | 49.97968 | 7.89593 | 6469 ft | 260 kts | 251° |
| 2026-05-08 04:40 | 49.97313 | 7.86931 | 6367 ft | 260 kts | 251° |
| 2026-05-08 04:41 | 49.96666 | 7.84302 | 6284 ft | 261 kts | 251° |
| 2026-05-08 04:41 | 49.96023 | 7.81696 | 6184 ft | 261 kts | 250° |
| 2026-05-08 04:41 | 49.95074 | 7.79347 | 6068 ft | 261 kts | 224° |
| 2026-05-08 04:41 | 49.93489 | 7.77981 | 5992 ft | 265 kts | 196° |
| 2026-05-08 04:42 | 49.91651 | 7.77879 | 5906 ft | 268 kts | 168° |
| 2026-05-08 04:42 | 49.89962 | 7.79074 | 5822 ft | 269 kts | 142° |
| 2026-05-08 04:42 | 49.88772 | 7.81259 | 5722 ft | 263 kts | 120° |
| 2026-05-08 04:42 | 49.87847 | 7.83717 | 5584 ft | 267 kts | 119° |
| 2026-05-08 04:43 | 49.87073 | 7.86296 | 5426 ft | 262 kts | 101° |
| 2026-05-08 04:43 | 49.87104 | 7.89083 | 5343 ft | 260 kts | 74° |
| 2026-05-08 04:43 | 49.87703 | 7.91715 | 5256 ft | 259 kts | 66° |
| 2026-05-08 04:43 | 49.88393 | 7.94295 | 5148 ft | 260 kts | 64° |
| 2026-05-08 04:44 | 49.89115 | 7.96868 | 5053 ft | 261 kts | 65° |
| 2026-05-08 04:44 | 49.89795 | 7.99478 | 4948 ft | 261 kts | 66° |
| 2026-05-08 04:44 | 49.90445 | 8.02103 | 4858 ft | 260 kts | 67° |
| 2026-05-08 04:44 | 49.91081 | 8.04726 | 4763 ft | 259 kts | 68° |
| 2026-05-08 04:45 | 49.91702 | 8.07315 | 4660 ft | 250 kts | 68° |
| 2026-05-08 04:45 | 49.92289 | 8.09771 | 4555 ft | 236 kts | 67° |
| 2026-05-08 04:45 | 49.92843 | 8.12081 | 4471 ft | 221 kts | 67° |
| 2026-05-08 04:45 | 49.93363 | 8.14248 | 4385 ft | 207 kts | 67° |
| 2026-05-08 04:46 | 49.93848 | 8.16270 | 4304 ft | 193 kts | 67° |
| 2026-05-08 04:46 | 49.94302 | 8.18162 | 4227 ft | 183 kts | 67° |
| 2026-05-08 04:46 | 49.94756 | 8.20045 | 4217 ft | 188 kts | 67° |
| 2026-05-08 04:46 | 49.95207 | 8.21918 | 4179 ft | 183 kts | 67° |
| 2026-05-08 04:47 | 49.95648 | 8.23765 | 4081 ft | 181 kts | 67° |
| 2026-05-08 04:47 | 49.96086 | 8.25587 | 4045 ft | 182 kts | 67° |
| 2026-05-08 04:47 | 49.96529 | 8.27434 | 4006 ft | 182 kts | 67° |
| 2026-05-08 04:47 | 49.96979 | 8.29305 | 3758 ft | 187 kts | 67° |
| 2026-05-08 04:48 | 49.97429 | 8.31179 | 3537 ft | 187 kts | 67° |
| 2026-05-08 04:48 | 49.97869 | 8.33025 | 3269 ft | 177 kts | 67° |
| 2026-05-08 04:48 | 49.98291 | 8.34786 | 3033 ft | 175 kts | 67° |
| 2026-05-08 04:48 | 49.98722 | 8.36584 | 2783 ft | 179 kts | 67° |
| 2026-05-08 04:49 | 49.99155 | 8.38393 | 2562 ft | 179 kts | 67° |
| 2026-05-08 04:49 | 49.99586 | 8.40193 | 2323 ft | 176 kts | 67° |
| 2026-05-08 04:49 | 50.00010 | 8.41963 | 2071 ft | 174 kts | 67° |
| 2026-05-08 04:49 | 50.00410 | 8.43640 | 1834 ft | 157 kts | 67° |
| 2026-05-08 04:50 | 50.00776 | 8.45172 | 1599 ft | 145 kts | 67° |
| 2026-05-08 04:50 | 50.01122 | 8.46612 | 1381 ft | 140 kts | 66° |
| 2026-05-08 04:50 | 50.01456 | 8.48009 | 1140 ft | 136 kts | 67° |
| 2026-05-08 04:50 | 50.01781 | 8.49367 | 930 ft | 132 kts | 68° |
| 2026-05-08 04:51 | 50.02099 | 8.50705 | 733 ft | 131 kts | 68° |
| 2026-05-08 04:51 | 50.02414 | 8.52026 | 573 ft | 131 kts | 68° |
| 2026-05-08 04:51 | 50.02734 | 8.53361 | 396 ft | 132 kts | 69° |
| 2026-05-08 04:51 | 50.03045 | 8.54647 | 351 ft | 116 kts | 69° |
| 2026-05-08 04:52 | 50.03264 | 8.55559 | 358 ft | 64 kts | 70° |
| 2026-05-08 04:52 | 50.03366 | 8.55986 | 366 ft | 34 kts | 70° |
| 2026-05-08 04:52 | 50.03470 | 8.56280 | 368 ft | 27 kts | 41° |
| 2026-05-08 04:52 | 50.03599 | 8.56449 | 371 ft | 13 kts | 40° |
| 2026-05-08 04:53 | 50.03603 | 8.56454 | 371 ft | 0 kts | 40° |
| 2026-05-08 04:53 | 50.03603 | 8.56455 | 371 ft | 0 kts | 40° |
| 2026-05-08 04:54 | 50.03604 | 8.56456 | 371 ft | 1 kts | 40° |
| 2026-05-08 04:54 | 50.03624 | 8.56481 | 371 ft | 7 kts | 40° |
| 2026-05-08 04:55 | 50.03680 | 8.56555 | 370 ft | 15 kts | 39° |
| 2026-05-08 04:55 | 50.03786 | 8.56645 | 369 ft | 19 kts | 14° |
| 2026-05-08 04:55 | 50.03922 | 8.56694 | 369 ft | 22 kts | 10° |
| 2026-05-08 04:55 | 50.04063 | 8.56731 | 368 ft | 20 kts | 9° |
| 2026-05-08 04:56 | 50.04197 | 8.56780 | 372 ft | 16 kts | 4° |
| 2026-05-08 04:56 | 50.04233 | 8.56710 | 370 ft | 9 kts | 252° |
| 2026-05-08 04:56 | 50.04201 | 8.56590 | 365 ft | 15 kts | 249° |
| 2026-05-08 04:56 | 50.04154 | 8.56389 | 365 ft | 24 kts | 251° |
| 2026-05-08 04:57 | 50.04091 | 8.56130 | 364 ft | 26 kts | 249° |
| 2026-05-08 04:57 | 50.04028 | 8.55865 | 363 ft | 23 kts | 249° |
| 2026-05-08 04:57 | 50.03976 | 8.55644 | 364 ft | 22 kts | 250° |
| 2026-05-08 04:57 | 50.03923 | 8.55421 | 365 ft | 22 kts | 250° |
| 2026-05-08 04:58 | 50.03865 | 8.55182 | 363 ft | 22 kts | 250° |
| 2026-05-08 04:58 | 50.03873 | 8.55039 | 361 ft | 12 kts | 319° |
| 2026-05-08 04:58 | 50.03952 | 8.54981 | 359 ft | 13 kts | 338° |
| 2026-05-08 04:58 | 50.03991 | 8.54899 | 362 ft | 10 kts | 256° |
| 2026-05-08 04:59 | 50.03961 | 8.54771 | 358 ft | 15 kts | 257° |
| 2026-05-08 04:59 | 50.04004 | 8.54668 | 356 ft | 9 kts | 348° |
| 2026-05-08 04:59 | 50.04048 | 8.54730 | 360 ft | 10 kts | 71° |
| 2026-05-08 04:59 | 50.04059 | 8.54777 | 359 ft | 0 kts | 70° |